Time;durP1;ratioP1;P1;durP2;ratioP2;P2;SDS_P1;SDS_P2;PMS_P1;PMS_P2;Temp;Humidity;BMP_temperature;BMP_pressure;BME280_temperature;BME280_humidity;BME280_pressure;Samples;Min_cycle;Max_cycle;Signal;HPM_P1;HPM_P2
2022/05/30 00:01:31;;;;;;;6.13;3.05;;;5.80;99.90;;;;;;5029518;28;20029;-72
2022/05/30 00:03:57;;;;;;;6.53;3.65;;;5.80;99.90;;;;;;5013648;28;20034;-72
2022/05/30 00:06:23;;;;;;;7.30;3.92;;;5.70;99.90;;;;;;5004161;28;20032;-73
2022/05/30 00:08:50;;;;;;;7.72;3.42;;;5.70;99.90;;;;;;5016909;28;20033;-72
2022/05/30 00:11:17;;;;;;;7.47;4.55;;;5.70;99.90;;;;;;5026068;28;20049;-72
2022/05/30 00:13:44;;;;;;;6.13;3.78;;;5.70;99.90;;;;;;5004707;28;20081;-73
2022/05/30 00:16:14;;;;;;;6.18;4.65;;;5.70;99.90;;;;;;5012333;28;20104;-72
2022/05/30 00:18:41;;;;;;;5.90;4.18;;;5.70;99.90;;;;;;5011154;28;20034;-72
2022/05/30 00:21:07;;;;;;;6.65;3.63;;;5.60;99.90;;;;;;5023650;28;20029;-72
2022/05/30 00:23:33;;;;;;;7.15;4.47;;;5.50;99.90;;;;;;5016664;28;20029;-72
2022/05/30 00:25:59;;;;;;;7.90;4.47;;;5.50;99.90;;;;;;5026615;28;20024;-72
2022/05/30 00:28:25;;;;;;;7.15;5.40;;;5.40;99.90;;;;;;5020743;28;20100;-72
2022/05/30 00:30:51;;;;;;;6.63;5.10;;;5.40;99.90;;;;;;5003808;28;20038;-72
2022/05/30 00:33:18;;;;;;;7.75;5.57;;;5.40;99.90;;;;;;5005178;28;20033;-72
2022/05/30 00:35:45;;;;;;;7.68;5.20;;;5.40;99.90;;;;;;5015976;28;20535;-72
2022/05/30 00:38:11;;;;;;;6.93;5.10;;;5.40;99.90;;;;;;5009211;28;20060;-72
2022/05/30 00:40:38;;;;;;;8.88;5.35;;;5.40;99.90;;;;;;5020522;28;20561;-72
2022/05/30 00:43:24;;;;;;;6.70;5.45;;;5.30;99.90;;;;;;5014202;28;20025;-72
2022/05/30 00:45:50;;;;;;;7.30;4.90;;;5.30;99.90;;;;;;5013983;28;20137;-72
2022/05/30 00:48:19;;;;;;;7.60;5.00;;;5.30;99.90;;;;;;5020474;28;20033;-72
2022/05/30 00:50:45;;;;;;;8.00;5.60;;;5.30;99.90;;;;;;5013407;28;20379;-72
2022/05/30 00:53:12;;;;;;;7.68;5.38;;;5.20;99.90;;;;;;5003404;28;20029;-72
2022/05/30 00:55:39;;;;;;;8.70;5.10;;;5.20;99.90;;;;;;5008182;28;20074;-72
2022/05/30 00:58:06;;;;;;;7.15;5.30;;;5.10;99.90;;;;;;5006961;28;20528;-72
2022/05/30 01:00:31;;;;;;;6.05;4.95;;;5.10;99.90;;;;;;5017949;28;20384;-71
2022/05/30 01:08:29;;;;;;;5.32;4.53;;;4.90;99.90;;;;;;5022508;28;20028;-72
2022/05/30 01:10:55;;;;;;;7.22;4.65;;;4.90;99.90;;;;;;5040017;28;20772;-72
2022/05/30 01:13:23;;;;;;;7.38;4.80;;;4.80;99.90;;;;;;5010296;28;20049;-72
2022/05/30 01:15:49;;;;;;;7.28;5.03;;;4.70;99.90;;;;;;5017837;28;20033;-72
2022/05/30 01:18:27;;;;;;;7.05;3.90;;;4.60;99.90;;;;;;5011248;28;20036;-72
2022/05/30 01:20:58;;;;;;;4.07;3.55;;;4.50;99.90;;;;;;5000624;28;20044;-72
2022/05/30 01:23:46;;;;;;;6.30;4.20;;;4.50;99.90;;;;;;5010489;28;20024;-72
2022/05/30 01:26:30;;;;;;;5.20;3.85;;;4.50;99.90;;;;;;5004148;28;20021;-72
2022/05/30 01:29:02;;;;;;;4.40;3.45;;;4.50;99.90;;;;;;5014951;28;20042;-72
2022/05/30 01:31:30;;;;;;;5.38;4.07;;;4.40;99.90;;;;;;5019728;28;20555;-72
2022/05/30 01:33:55;;;;;;;6.05;4.15;;;4.40;99.90;;;;;;5008862;28;20041;-72
2022/05/30 01:36:23;;;;;;;5.05;3.92;;;4.40;99.90;;;;;;5020432;28;20558;-72
2022/05/30 01:38:49;;;;;;;6.90;4.32;;;4.40;99.90;;;;;;5019551;28;20398;-72
2022/05/30 01:41:15;;;;;;;5.35;4.22;;;4.30;99.90;;;;;;5010857;28;20030;-72
2022/05/30 01:43:41;;;;;;;4.38;3.88;;;4.30;99.90;;;;;;5037278;28;20041;-72
2022/05/30 01:46:10;;;;;;;6.72;4.45;;;4.30;99.90;;;;;;5006823;28;20042;-72
2022/05/30 01:48:36;;;;;;;6.07;4.45;;;4.30;99.90;;;;;;5003860;28;20054;-72
2022/05/30 01:51:02;;;;;;;7.78;4.68;;;4.30;99.90;;;;;;4990181;28;20033;-72
2022/05/30 01:53:28;;;;;;;7.43;4.40;;;4.30;99.90;;;;;;5023573;28;20032;-72
2022/05/30 01:55:54;;;;;;;7.78;4.20;;;4.20;99.90;;;;;;5018784;28;20061;-72
2022/05/30 01:58:20;;;;;;;6.05;4.00;;;4.30;99.90;;;;;;4998322;28;20108;-71
2022/05/30 02:00:46;;;;;;;5.55;4.15;;;4.30;99.90;;;;;;5009033;28;20488;-71
2022/05/30 02:03:11;;;;;;;5.80;3.88;;;4.30;99.90;;;;;;5011906;28;20148;-72
2022/05/30 02:05:37;;;;;;;4.70;4.18;;;4.20;99.90;;;;;;5020252;28;20026;-72
2022/05/30 02:08:03;;;;;;;6.63;4.57;;;4.20;99.90;;;;;;5012267;28;20938;-72
2022/05/30 02:10:30;;;;;;;4.45;4.03;;;4.20;99.90;;;;;;5013953;28;20506;-72
2022/05/30 02:12:56;;;;;;;5.78;3.67;;;4.20;99.90;;;;;;5022800;28;20532;-72
2022/05/30 02:15:21;;;;;;;4.32;3.85;;;4.20;99.90;;;;;;4999631;28;20102;-71
2022/05/30 02:17:47;;;;;;;5.55;3.40;;;4.20;99.90;;;;;;5037469;28;20033;-71
2022/05/30 02:20:13;;;;;;;8.75;3.95;;;4.20;99.90;;;;;;5022838;28;20156;-72
2022/05/30 02:22:38;;;;;;;7.85;4.30;;;4.20;99.90;;;;;;5022681;28;20120;-71
2022/05/30 02:25:04;;;;;;;4.80;3.70;;;4.30;99.90;;;;;;4997626;28;20038;-72
2022/05/30 02:27:30;;;;;;;7.13;4.82;;;4.30;99.90;;;;;;4987478;28;20036;-73
2022/05/30 02:29:56;;;;;;;6.35;3.78;;;4.40;99.90;;;;;;5013982;28;20025;-73
2022/05/30 02:32:22;;;;;;;5.13;3.85;;;4.50;99.90;;;;;;5023063;28;20421;-71
2022/05/30 02:37:32;;;;;;;6.78;3.88;;;4.80;99.90;;;;;;5005559;28;20696;-72
2022/05/30 02:39:58;;;;;;;5.22;3.97;;;5.00;99.90;;;;;;4996863;28;20320;-72
2022/05/30 02:42:23;;;;;;;4.90;3.78;;;5.20;99.90;;;;;;5021658;28;20157;-72
2022/05/30 02:44:49;;;;;;;4.22;3.45;;;5.20;99.90;;;;;;5002594;28;20048;-72
2022/05/30 02:47:17;;;;;;;4.32;3.92;;;5.20;99.90;;;;;;5031860;28;20532;-72
2022/05/30 02:49:43;;;;;;;6.03;3.90;;;5.10;99.90;;;;;;4995389;28;20445;-72
2022/05/30 02:52:09;;;;;;;8.15;4.22;;;5.00;99.90;;;;;;5007892;28;20021;-72
2022/05/30 02:54:34;;;;;;;5.95;4.50;;;4.80;99.90;;;;;;5012567;28;20107;-72
2022/05/30 02:57:00;;;;;;;5.30;4.03;;;4.70;99.90;;;;;;5024567;28;20060;-72
2022/05/30 02:59:27;;;;;;;5.65;4.20;;;4.60;99.90;;;;;;5007090;28;20481;-71
2022/05/30 03:01:54;;;;;;;5.65;4.40;;;4.40;99.90;;;;;;5014203;28;20029;-72
2022/05/30 03:04:20;;;;;;;6.20;3.92;;;4.30;99.90;;;;;;5023868;28;20037;-72
2022/05/30 03:06:46;;;;;;;4.82;3.45;;;4.30;99.90;;;;;;5023215;28;20439;-73
2022/05/30 03:09:13;;;;;;;6.15;3.45;;;4.30;99.90;;;;;;5007351;28;20520;-72
2022/05/30 03:11:39;;;;;;;3.72;3.17;;;4.20;99.90;;;;;;5005537;28;20040;-72
2022/05/30 03:14:05;;;;;;;6.32;3.47;;;4.20;99.90;;;;;;4996140;28;20080;-72
2022/05/30 03:16:31;;;;;;;5.30;3.38;;;4.20;99.90;;;;;;5013721;28;20080;-72
2022/05/30 03:18:57;;;;;;;4.13;3.60;;;4.10;99.90;;;;;;5019147;28;20033;-72
2022/05/30 03:21:22;;;;;;;4.78;3.38;;;4.20;99.90;;;;;;5031190;28;20222;-71
2022/05/30 03:23:48;;;;;;;4.40;3.15;;;4.10;99.90;;;;;;5016748;28;20496;-71
2022/05/30 03:26:15;;;;;;;5.53;3.85;;;4.10;99.90;;;;;;5008398;28;20037;-72
2022/05/30 03:28:41;;;;;;;5.70;3.75;;;4.00;99.90;;;;;;5004840;28;20029;-72
2022/05/30 03:31:08;;;;;;;3.97;2.78;;;4.00;99.90;;;;;;5013954;28;20116;-72
2022/05/30 03:33:35;;;;;;;5.00;3.63;;;3.90;99.90;;;;;;4996955;28;20034;-72
2022/05/30 03:36:01;;;;;;;4.63;3.08;;;3.90;99.90;;;;;;5025472;28;20108;-72
2022/05/30 03:38:27;;;;;;;5.43;3.45;;;3.80;99.90;;;;;;5022716;28;20053;-72
2022/05/30 03:40:52;;;;;;;5.55;2.97;;;3.80;99.90;;;;;;5008866;28;20444;-72
2022/05/30 03:43:18;;;;;;;5.70;3.30;;;3.80;99.90;;;;;;5004494;28;20119;-72
2022/05/30 03:45:44;;;;;;;4.25;3.58;;;3.70;99.90;;;;;;5018736;28;20026;-72
2022/05/30 03:48:12;;;;;;;5.68;3.72;;;3.70;99.90;;;;;;5004139;28;20041;-72
2022/05/30 03:50:39;;;;;;;4.63;3.20;;;3.70;99.90;;;;;;5004991;28;20032;-71
2022/05/30 03:53:06;;;;;;;4.53;2.90;;;3.60;99.90;;;;;;5013211;28;20630;-71
2022/05/30 03:55:35;;;;;;;4.55;3.42;;;3.60;99.90;;;;;;5020117;28;20500;-71
2022/05/30 03:58:11;;;;;;;3.60;3.28;;;3.60;99.90;;;;;;5024442;28;20048;-71
2022/05/30 04:00:38;;;;;;;5.10;2.95;;;3.60;99.90;;;;;;5008185;28;20516;-72
2022/05/30 04:03:04;;;;;;;4.93;3.58;;;3.60;99.90;;;;;;5004678;28;20030;-72
2022/05/30 04:05:30;;;;;;;4.95;3.83;;;3.70;99.90;;;;;;5005616;28;20029;-71
2022/05/30 04:07:57;;;;;;;5.95;3.88;;;3.70;99.90;;;;;;5023060;28;20396;-71
2022/05/30 04:10:23;;;;;;;4.50;3.47;;;3.80;99.90;;;;;;5029119;28;20021;-72
2022/05/30 04:12:49;;;;;;;3.88;3.17;;;3.90;99.90;;;;;;5000984;28;20434;-72
2022/05/30 04:15:20;;;;;;;3.83;3.28;;;4.00;99.90;;;;;;4984730;28;20042;-71
2022/05/30 04:17:46;;;;;;;5.65;3.13;;;4.00;99.90;;;;;;4988428;28;20041;-72
2022/05/30 04:20:12;;;;;;;3.28;2.78;;;4.00;99.90;;;;;;4998907;28;20415;-72
2022/05/30 04:22:37;;;;;;;3.40;2.85;;;4.10;99.90;;;;;;4999682;28;20089;-72
2022/05/30 04:25:03;;;;;;;4.15;3.20;;;4.10;99.90;;;;;;4991216;28;20436;-72
2022/05/30 04:27:29;;;;;;;4.47;2.80;;;4.10;99.90;;;;;;5016926;28;20029;-72
2022/05/30 04:29:55;;;;;;;3.88;2.55;;;4.10;99.90;;;;;;5023657;28;20064;-71
2022/05/30 04:32:22;;;;;;;3.78;2.83;;;4.10;99.90;;;;;;4994865;28;20030;-72
2022/05/30 04:34:48;;;;;;;3.90;2.53;;;4.20;99.90;;;;;;4999568;28;20107;-72
2022/05/30 04:37:14;;;;;;;4.35;2.40;;;4.20;99.90;;;;;;4995000;28;20544;-72
2022/05/30 04:39:39;;;;;;;7.53;2.17;;;4.20;99.90;;;;;;4991683;28;20265;-72
2022/05/30 04:42:05;;;;;;;4.25;2.50;;;4.30;99.90;;;;;;4988729;28;20026;-72
2022/05/30 04:44:31;;;;;;;2.47;2.28;;;4.30;99.90;;;;;;5001810;28;20103;-72
2022/05/30 04:46:58;;;;;;;6.10;2.38;;;4.30;99.90;;;;;;5000873;28;20270;-72
2022/05/30 04:49:25;;;;;;;5.35;2.60;;;4.30;99.90;;;;;;4998448;28;20029;-72
2022/05/30 04:51:51;;;;;;;4.75;3.10;;;4.30;99.90;;;;;;5000825;28;20053;-72
2022/05/30 04:54:18;;;;;;;3.17;2.72;;;4.30;99.90;;;;;;5001531;28;20516;-71
2022/05/30 04:56:43;;;;;;;4.05;2.88;;;4.30;99.90;;;;;;4991306;28;20532;-72
2022/05/30 04:59:09;;;;;;;4.80;4.30;;;4.30;99.90;;;;;;4991663;28;20037;-72
2022/05/30 05:01:36;;;;;;;5.00;2.80;;;4.40;99.90;;;;;;4997779;28;20048;-72
2022/05/30 05:04:04;;;;;;;3.28;2.78;;;4.60;99.90;;;;;;5005616;28;20393;-72
2022/05/30 05:06:30;;;;;;;7.50;3.17;;;4.70;99.90;;;;;;5002833;28;20034;-72
2022/05/30 05:09:05;;;;;;;7.05;3.72;;;4.80;99.90;;;;;;4987775;28;20029;-72
2022/05/30 05:11:33;;;;;;;5.80;4.18;;;4.80;99.90;;;;;;5000787;28;20030;-72
2022/05/30 05:13:59;;;;;;;4.80;4.35;;;4.80;99.90;;;;;;5011841;28;20267;-72
2022/05/30 05:16:27;;;;;;;4.78;4.20;;;4.90;99.90;;;;;;5017241;28;20256;-72
2022/05/30 05:18:53;;;;;;;5.25;3.80;;;5.00;99.90;;;;;;5016990;28;20627;-72
2022/05/30 05:21:26;;;;;;;4.47;3.00;;;4.90;99.90;;;;;;5013550;28;20590;-73
2022/05/30 05:23:52;;;;;;;5.43;2.80;;;5.00;99.90;;;;;;5020314;28;20104;-71
2022/05/30 05:26:19;;;;;;;4.47;3.17;;;5.00;99.90;;;;;;5016834;28;20026;-72
2022/05/30 05:28:45;;;;;;;3.38;3.03;;;5.00;99.90;;;;;;5023335;28;20028;-72
2022/05/30 05:31:20;;;;;;;5.18;3.17;;;5.10;99.90;;;;;;5022333;28;20045;-72
2022/05/30 05:33:45;;;;;;;3.67;3.15;;;5.10;99.90;;;;;;5018070;28;20034;-72
2022/05/30 05:36:11;;;;;;;4.00;3.38;;;5.10;99.90;;;;;;5017198;28;20040;-72
2022/05/30 05:38:36;;;;;;;4.22;3.13;;;5.10;99.90;;;;;;5035083;28;20075;-72
2022/05/30 05:41:07;;;;;;;6.30;3.72;;;5.20;99.90;;;;;;5019568;28;20120;-72
2022/05/30 05:43:33;;;;;;;6.38;3.53;;;5.20;99.90;;;;;;5016916;28;20029;-72
2022/05/30 05:45:59;;;;;;;6.15;3.10;;;5.30;99.90;;;;;;5014474;28;20258;-72
2022/05/30 05:48:24;;;;;;;4.75;3.13;;;5.50;99.90;;;;;;5003298;28;20034;-71
2022/05/30 05:50:50;;;;;;;3.33;2.92;;;5.60;99.90;;;;;;5006371;28;20497;-70
2022/05/30 05:53:15;;;;;;;4.32;3.10;;;5.60;99.90;;;;;;5017883;28;20029;-71
2022/05/30 05:55:41;;;;;;;6.50;3.60;;;5.80;99.90;;;;;;5013257;28;20408;-71
2022/05/30 05:58:07;;;;;;;4.43;3.85;;;5.90;99.90;;;;;;5021792;28;20121;-71
2022/05/30 06:00:33;;;;;;;3.40;3.10;;;6.00;99.90;;;;;;5021897;28;20120;-71
2022/05/30 06:02:59;;;;;;;6.25;3.45;;;6.00;99.90;;;;;;5022664;28;20039;-71
2022/05/30 06:05:25;;;;;;;5.78;3.45;;;6.20;99.90;;;;;;5024699;28;20392;-71
2022/05/30 06:07:51;;;;;;;6.78;4.00;;;6.20;99.90;;;;;;5025046;28;20029;-71
2022/05/30 06:10:16;;;;;;;6.05;3.95;;;6.30;99.90;;;;;;5020238;28;20030;-71
2022/05/30 06:12:45;;;;;;;4.93;4.35;;;6.40;99.90;;;;;;5021797;28;20616;-71
2022/05/30 06:15:15;;;;;;;4.75;3.40;;;6.50;99.90;;;;;;5029325;28;20045;-71
2022/05/30 06:17:41;;;;;;;5.65;3.58;;;6.60;99.90;;;;;;5013452;28;20276;-71
2022/05/30 06:20:09;;;;;;;5.38;3.30;;;6.70;99.90;;;;;;5005086;28;20038;-71
2022/05/30 06:22:35;;;;;;;5.50;3.28;;;6.90;99.90;;;;;;5007902;28;20197;-71
2022/05/30 06:25:01;;;;;;;5.45;3.30;;;7.00;99.90;;;;;;5023044;28;20044;-71
2022/05/30 06:27:26;;;;;;;3.15;2.85;;;7.20;99.90;;;;;;5013019;28;20386;-71
2022/05/30 06:29:52;;;;;;;6.53;3.08;;;7.40;99.90;;;;;;5005115;28;20037;-71
2022/05/30 06:32:18;;;;;;;5.60;3.05;;;7.60;99.90;;;;;;5012062;28;20393;-71
2022/05/30 06:34:44;;;;;;;6.80;2.55;;;7.90;99.90;;;;;;5015921;28;20511;-71
2022/05/30 06:37:13;;;;;;;4.53;3.03;;;8.10;99.90;;;;;;5021524;28;20034;-71
2022/05/30 06:39:39;;;;;;;3.83;2.85;;;8.30;99.90;;;;;;5016140;28;20074;-71
2022/05/30 06:42:09;;;;;;;6.00;2.85;;;8.60;99.90;;;;;;5027087;28;20374;-71
2022/05/30 06:44:36;;;;;;;5.65;2.60;;;8.80;99.90;;;;;;5023766;28;20038;-71
2022/05/30 06:47:03;;;;;;;4.35;2.55;;;9.00;99.90;;;;;;5022993;28;20355;-71
2022/05/30 06:49:28;;;;;;;5.15;2.90;;;9.20;99.90;;;;;;5000884;28;20041;-71
2022/05/30 06:51:54;;;;;;;2.60;2.40;;;9.20;99.90;;;;;;5018578;28;20037;-71
2022/05/30 06:54:20;;;;;;;2.88;2.13;;;9.30;99.90;;;;;;5002144;28;20030;-73
2022/05/30 06:59:31;;;;;;;3.40;2.40;;;9.40;99.90;;;;;;5022005;28;20068;-71
2022/05/30 07:01:59;;;;;;;4.18;2.53;;;9.50;99.90;;;;;;5010054;28;20125;-71
2022/05/30 07:04:25;;;;;;;7.25;2.33;;;9.70;99.90;;;;;;5007759;28;20076;-71
2022/05/30 07:06:51;;;;;;;4.95;2.40;;;9.80;99.90;;;;;;5018829;28;20033;-71
2022/05/30 07:09:17;;;;;;;3.88;2.00;;;10.00;99.90;;;;;;5021414;28;20029;-71
2022/05/30 07:11:43;;;;;;;3.10;2.00;;;10.30;99.90;;;;;;5009400;28;20038;-71
2022/05/30 07:14:12;;;;;;;6.28;1.85;;;10.50;99.90;;;;;;5019631;28;20061;-71
2022/05/30 07:16:39;;;;;;;1.60;1.25;;;11.10;99.90;;;;;;5023623;28;20040;-73
2022/05/30 07:19:07;;;;;;;8.18;2.33;;;11.60;99.90;;;;;;5013323;28;20040;-71
2022/05/30 07:21:32;;;;;;;4.72;1.17;;;11.90;99.90;;;;;;5022537;28;20405;-73
2022/05/30 07:23:58;;;;;;;3.22;1.10;;;12.40;99.90;;;;;;5018545;28;20036;-71
2022/05/30 07:26:24;;;;;;;4.07;1.25;;;12.80;99.90;;;;;;5019626;28;20084;-71
2022/05/30 07:28:53;;;;;;;2.85;1.55;;;13.40;99.90;;;;;;5008590;28;20037;-73
2022/05/30 07:31:20;;;;;;;3.08;0.73;;;14.40;99.90;;;;;;5007426;28;20064;-73
2022/05/30 07:33:48;;;;;;;3.75;0.98;;;15.20;99.90;;;;;;4994905;28;20385;-74
2022/05/30 07:36:18;;;;;;;4.82;1.15;;;16.30;99.90;;;;;;5008416;28;20100;-73
2022/05/30 07:38:44;;;;;;;3.35;0.82;;;16.10;99.90;;;;;;5000039;28;20401;-73
2022/05/30 07:41:10;;;;;;;3.03;0.50;;;16.10;96.70;;;;;;4312463;28;9999680;-73
2022/05/30 07:43:36;;;;;;;3.50;0.50;;;17.10;96.60;;;;;;5005572;28;20038;-74
2022/05/30 07:46:09;;;;;;;4.53;0.88;;;18.50;90.80;;;;;;5014499;28;20020;-74
2022/05/30 07:48:35;;;;;;;2.53;0.57;;;19.00;90.30;;;;;;5016538;28;20550;-74
2022/05/30 07:51:02;;;;;;;7.50;1.00;;;20.40;84.20;;;;;;5022313;28;20033;-74
2022/05/30 07:53:28;;;;;;;4.88;1.27;;;20.70;76.40;;;;;;5006502;28;20033;-74
2022/05/30 07:55:54;;;;;;;1.92;1.00;;;21.10;73.30;;;;;;5005418;28;20037;-73
2022/05/30 07:58:20;;;;;;;3.55;0.50;;;21.10;62.90;;;;;;5000242;28;20091;-74
2022/05/30 08:00:49;;;;;;;1.10;0.50;;;20.90;63.70;;;;;;4995643;28;20558;-74
2022/05/30 08:03:16;;;;;;;5.85;0.77;;;21.70;63.90;;;;;;5000146;28;20404;-73
2022/05/30 08:05:43;;;;;;;1.95;0.60;;;21.50;64.00;;;;;;5000917;28;20512;-74
2022/05/30 08:08:10;;;;;;;1.98;0.65;;;22.50;69.80;;;;;;5004600;28;20025;-74
2022/05/30 08:10:36;;;;;;;3.92;0.63;;;22.90;58.50;;;;;;5003274;28;20025;-74
2022/05/30 08:13:02;;;;;;;1.88;0.68;;;22.10;55.00;;;;;;5004806;28;20054;-74
2022/05/30 08:15:27;;;;;;;3.38;0.50;;;21.90;60.20;;;;;;5003461;28;20076;-74
2022/05/30 08:17:55;;;;;;;3.80;0.35;;;21.40;57.80;;;;;;4997341;28;21243;-74
2022/05/30 08:20:20;;;;;;;3.13;0.65;;;21.40;60.50;;;;;;4997754;28;20044;-74
2022/05/30 08:22:46;;;;;;;2.92;0.40;;;20.90;60.20;;;;;;4998739;28;20064;-74
2022/05/30 08:25:14;;;;;;;0.65;0.25;;;21.80;55.60;;;;;;5007495;28;20036;-74
2022/05/30 08:27:42;;;;;;;4.68;0.50;;;22.10;61.30;;;;;;4999217;28;20041;-74
2022/05/30 08:30:09;;;;;;;1.45;0.40;;;22.60;68.30;;;;;;5005997;28;20075;-75
2022/05/30 08:32:39;;;;;;;2.78;0.55;;;23.30;53.10;;;;;;5002692;28;20037;-75
2022/05/30 08:35:05;;;;;;;2.97;0.32;;;24.20;53.50;;;;;;4998762;28;20124;-75
2022/05/30 08:37:35;;;;;;;2.50;0.57;;;23.70;55.70;;;;;;5011139;28;20040;-73
2022/05/30 08:42:48;;;;;;;2.30;0.40;;;24.10;49.30;;;;;;5007861;28;20062;-75
2022/05/30 08:45:17;;;;;;;4.43;0.50;;;24.00;51.00;;;;;;5004712;28;20041;-75
2022/05/30 08:47:49;;;;;;;1.20;0.63;;;23.60;48.30;;;;;;5004867;28;20445;-75
2022/05/30 08:50:26;;;;;;;1.75;0.32;;;23.00;49.40;;;;;;5007533;28;20113;-75
2022/05/30 08:52:58;;;;;;;2.88;0.60;;;21.70;51.90;;;;;;5008640;28;20021;-75
2022/05/30 08:55:42;;;;;;;1.52;0.43;;;22.00;50.80;;;;;;5015329;28;20500;-76
2022/05/30 08:58:38;;;;;;;2.78;0.35;;;21.70;48.60;;;;;;5007042;28;20033;-75
2022/05/30 09:01:11;;;;;;;2.47;0.30;;;21.10;66.00;;;;;;5006768;28;22637;-76
2022/05/30 09:04:16;;;;;;;3.60;0.45;;;20.20;65.90;;;;;;5006196;28;20033;-75
2022/05/30 09:06:56;;;;;;;1.25;0.20;;;19.50;64.30;;;;;;5007965;28;20107;-76
2022/05/30 09:09:45;;;;;;;1.00;0.30;;;18.20;67.50;;;;;;4998233;28;20030;-75
2022/05/30 09:12:29;;;;;;;2.17;0.40;;;17.90;81.60;;;;;;4995276;28;20068;-76
2022/05/30 09:15:07;;;;;;;2.00;0.22;;;17.60;82.50;;;;;;5020780;28;20099;-76
2022/05/30 09:17:42;;;;;;;1.88;0.35;;;17.80;87.40;;;;;;5012655;28;20471;-75
2022/05/30 09:20:14;;;;;;;2.13;0.50;;;17.40;86.60;;;;;;4987814;28;22909;-75
2022/05/30 09:22:40;;;;;;;1.33;0.40;;;17.50;91.90;;;;;;5014016;28;20037;-74
2022/05/30 09:27:57;;;;;;;3.93;0.57;;;17.40;89.20;;;;;;5011371;28;20036;-76
2022/05/30 09:30:29;;;;;;;2.42;0.30;;;17.20;83.40;;;;;;5000699;28;20034;-76
2022/05/30 09:33:22;;;;;;;5.70;0.52;;;16.80;82.80;;;;;;5005304;28;20026;-75
2022/05/30 09:35:48;;;;;;;2.17;0.40;;;16.50;80.40;;;;;;5002518;28;20061;-74
2022/05/30 09:38:18;;;;;;;3.50;0.60;;;16.10;88.30;;;;;;5016030;28;20064;-73
2022/05/30 09:40:56;;;;;;;2.79;0.36;;;16.50;82.70;;;;;;4313815;28;10000505;-74
2022/05/30 09:43:59;;;;;;;1.98;0.40;;;17.00;88.90;;;;;;5011267;28;20452;-75
2022/05/30 09:46:51;;;;;;;3.95;0.52;;;17.40;86.20;;;;;;5006401;28;20057;-74
2022/05/30 09:49:21;;;;;;;2.03;0.20;;;17.80;91.40;;;;;;5000035;28;20085;-73
2022/05/30 09:51:51;;;;;;;0.82;0.22;;;18.20;82.10;;;;;;5002718;28;20472;-73
2022/05/30 09:54:25;;;;;;;3.15;0.73;;;18.60;73.30;;;;;;5005572;28;20571;-76
2022/05/30 09:57:12;;;;;;;1.08;0.40;;;19.10;68.10;;;;;;5010147;28;20037;-74
2022/05/30 09:59:43;;;;;;;2.60;0.57;;;19.20;68.60;;;;;;5004090;28;20281;-76
2022/05/30 10:02:21;;;;;;;0.82;0.20;;;19.40;73.90;;;;;;5000976;28;20116;-76
2022/05/30 10:04:46;;;;;;;1.10;0.32;;;19.40;73.80;;;;;;5000742;28;20062;-76
2022/05/30 10:07:14;;;;;;;2.17;0.40;;;19.10;67.20;;;;;;5005380;28;20036;-76
2022/05/30 10:10:00;;;;;;;1.95;0.30;;;18.50;69.30;;;;;;5005852;28;20091;-76
2022/05/30 10:12:56;;;;;;;1.42;0.35;;;18.00;75.70;;;;;;5007684;28;20029;-78
2022/05/30 10:15:42;;;;;;;1.80;0.30;;;17.20;76.60;;;;;;5010968;28;20088;-75
2022/05/30 10:18:13;;;;;;;1.73;0.30;;;16.60;78.10;;;;;;5013113;28;20037;-77
2022/05/30 10:21:03;;;;;;;2.83;0.50;;;16.40;81.40;;;;;;4998669;28;20044;-76
2022/05/30 10:30:15;;;;;;;0.40;0.40;;;15.80;90.90;;;;;;5001338;28;20502;-76
2022/05/30 10:32:57;;;;;;;2.13;0.30;;;15.80;85.70;;;;;;4997156;28;20485;-76
2022/05/30 10:35:27;;;;;;;1.70;0.40;;;15.70;90.20;;;;;;4998650;28;20037;-77
2022/05/30 10:38:23;;;;;;;3.50;0.40;;;15.80;90.90;;;;;;5009783;28;20116;-76
2022/05/30 10:41:04;;;;;;;2.40;0.50;;;15.80;83.00;;;;;;5012885;28;20040;-75
2022/05/30 10:43:45;;;;;;;3.17;0.55;;;15.90;82.00;;;;;;5007645;28;20026;-76
2022/05/30 10:46:27;;;;;;;0.80;0.43;;;15.90;88.10;;;;;;5011490;28;20472;-74
2022/05/30 10:49:06;;;;;;;2.75;0.45;;;15.70;89.20;;;;;;5007730;28;20034;-73
2022/05/30 10:51:50;;;;;;;1.88;0.47;;;15.70;86.30;;;;;;5002307;28;20029;-77
2022/05/30 10:54:24;;;;;;;1.17;0.30;;;15.70;93.00;;;;;;5006493;28;20575;-75
2022/05/30 10:56:52;;;;;;;1.33;0.40;;;15.70;86.10;;;;;;5006991;28;20021;-78
2022/05/30 10:59:36;;;;;;;2.55;0.90;;;15.90;88.90;;;;;;5010774;28;20375;-78
2022/05/30 11:02:46;;;;;;;1.95;0.60;;;16.20;86.60;;;;;;5006338;28;20038;-77
2022/05/30 11:05:15;;;;;;;3.22;1.02;;;16.30;88.50;;;;;;5007333;28;20390;-74
2022/05/30 11:07:59;;;;;;;1.52;0.50;;;16.30;81.20;;;;;;5007498;28;20121;-75
2022/05/30 11:10:45;;;;;;;0.38;0.38;;;16.40;82.20;;;;;;5007707;28;20033;-77
2022/05/30 11:13:48;;;;;;;3.55;0.70;;;16.70;78.30;;;;;;5009675;28;20057;-76
2022/05/30 11:16:47;;;;;;;3.72;0.60;;;17.00;77.20;;;;;;5012145;28;20037;-77
2022/05/30 11:19:22;;;;;;;2.92;0.50;;;17.30;81.40;;;;;;4657172;28;10000125;-79
2022/05/30 11:22:05;;;;;;;0.82;0.40;;;17.80;76.20;;;;;;5004356;28;20040;-77
2022/05/30 11:24:32;;;;;;;2.60;0.60;;;18.60;82.90;;;;;;5016047;28;20404;-76
2022/05/30 11:27:19;;;;;;;0.30;0.20;;;19.20;76.00;;;;;;5006809;28;20037;-77
2022/05/30 11:30:22;;;;;;;1.80;0.50;;;20.00;74.40;;;;;;5007241;28;20033;-77
2022/05/30 11:33:45;;;;;;;2.40;0.50;;;21.50;64.20;;;;;;5005487;28;20048;-77
2022/05/30 11:36:40;;;;;;;2.22;0.55;;;20.90;55.90;;;;;;4946692;28;20051;-78
2022/05/30 11:39:29;;;;;;;1.10;0.40;;;20.10;65.00;;;;;;4947334;28;20089;-78
2022/05/30 11:42:09;;;;;;;2.10;0.55;;;19.60;64.80;;;;;;4983032;28;20069;-75
2022/05/30 11:44:49;;;;;;;1.80;0.52;;;19.00;68.30;;;;;;5007086;28;20041;-75
2022/05/30 11:47:45;;;;;;;1.42;0.70;;;18.90;70.00;;;;;;5005125;28;20034;-75
2022/05/30 11:50:37;;;;;;;1.05;0.85;;;19.20;71.90;;;;;;5005876;28;20511;-76
2022/05/30 11:53:33;;;;;;;0.85;0.40;;;19.70;70.80;;;;;;4995156;28;20142;-78
2022/05/30 11:56:09;;;;;;;1.35;0.43;;;19.50;73.00;;;;;;4994269;28;20073;-78
2022/05/30 11:59:06;;;;;;;3.70;0.73;;;19.30;75.70;;;;;;5006351;28;20025;-77
2022/05/30 12:01:35;;;;;;;1.33;0.45;;;19.00;66.20;;;;;;4989859;28;20484;-76
2022/05/30 12:04:21;;;;;;;6.75;0.80;;;17.90;68.10;;;;;;5006537;28;20472;-77
2022/05/30 12:07:08;;;;;;;3.38;0.52;;;17.50;73.00;;;;;;5009344;28;20603;-75
2022/05/30 12:10:02;;;;;;;2.20;0.85;;;17.00;78.00;;;;;;5016724;28;20133;-76
2022/05/30 12:12:34;;;;;;;3.65;0.70;;;17.00;88.50;;;;;;5015393;28;20026;-76
2022/05/30 12:15:24;;;;;;;0.95;0.40;;;16.90;79.10;;;;;;5012470;28;20033;-79
2022/05/30 12:24:15;;;;;;;5.15;0.70;;;17.00;78.60;;;;;;5007744;28;20040;-74
2022/05/30 12:26:49;;;;;;;4.10;0.52;;;17.20;88.60;;;;;;5012127;28;20095;-77
2022/05/30 12:29:39;;;;;;;5.88;2.03;;;17.50;82.40;;;;;;5008423;28;20030;-75
2022/05/30 12:32:24;;;;;;;3.53;0.60;;;17.40;79.80;;;;;;5007911;28;20025;-73
2022/05/30 12:37:55;;;;;;;3.75;1.77;;;17.30;79.10;;;;;;5010027;28;20145;-74
2022/05/30 12:40:27;;;;;;;3.13;0.65;;;17.50;76.60;;;;;;5023745;28;20026;-74
2022/05/30 12:43:23;;;;;;;2.45;0.65;;;18.00;78.20;;;;;;5021423;28;20042;-74
2022/05/30 12:46:10;;;;;;;1.42;0.60;;;18.50;74.40;;;;;;5011198;28;20025;-75
2022/05/30 12:48:50;;;;;;;2.45;0.70;;;19.10;70.60;;;;;;5012528;28;20531;-73
2022/05/30 12:51:23;;;;;;;1.17;0.40;;;19.60;66.00;;;;;;5000005;28;20048;-74
2022/05/30 12:53:54;;;;;;;2.63;0.57;;;19.60;65.80;;;;;;5006256;28;20113;-74
2022/05/30 12:56:43;;;;;;;3.25;0.90;;;19.70;73.80;;;;;;5014394;28;20025;-75
2022/05/30 12:59:24;;;;;;;1.88;0.50;;;19.80;69.90;;;;;;5011638;28;20489;-75
2022/05/30 13:01:53;;;;;;;6.20;0.60;;;19.50;71.80;;;;;;5011148;28;20390;-75
2022/05/30 13:04:21;;;;;;;1.92;0.80;;;19.00;72.30;;;;;;5013305;28;20045;-76
2022/05/30 13:07:01;;;;;;;3.63;0.75;;;18.80;73.80;;;;;;5013248;28;20464;-75
2022/05/30 13:09:43;;;;;;;2.15;0.47;;;18.90;71.50;;;;;;5002199;28;20033;-75
2022/05/30 13:12:14;;;;;;;3.22;0.65;;;19.10;71.60;;;;;;5017027;28;20022;-75
2022/05/30 13:15:01;;;;;;;2.97;0.63;;;19.40;73.50;;;;;;4988444;28;20045;-76
2022/05/30 13:17:35;;;;;;;2.10;0.73;;;19.20;70.80;;;;;;5010314;28;20036;-75
2022/05/30 13:20:07;;;;;;;1.00;0.50;;;19.00;68.20;;;;;;5006244;28;20058;-74
2022/05/30 13:22:40;;;;;;;2.70;1.23;;;18.80;69.10;;;;;;5008712;28;20021;-76
2022/05/30 13:25:08;;;;;;;2.35;0.73;;;18.80;72.50;;;;;;5005930;28;20042;-75
2022/05/30 13:27:34;;;;;;;5.72;1.30;;;18.90;74.30;;;;;;5004192;28;20033;-76
2022/05/30 13:30:15;;;;;;;1.30;0.60;;;19.20;69.10;;;;;;4991130;28;20026;-74
2022/05/30 13:32:41;;;;;;;2.83;1.23;;;19.40;69.70;;;;;;5005049;28;20611;-75
2022/05/30 13:35:11;;;;;;;2.35;0.60;;;19.40;70.40;;;;;;5003145;28;20056;-75
2022/05/30 13:37:45;;;;;;;1.25;0.47;;;20.40;67.10;;;;;;5005555;28;20032;-75
2022/05/30 13:40:18;;;;;;;2.25;0.70;;;21.10;63.70;;;;;;5006630;28;20026;-76
2022/05/30 13:42:52;;;;;;;2.35;0.55;;;21.30;68.50;;;;;;5005632;28;20030;-74
2022/05/30 13:45:30;;;;;;;3.90;0.70;;;21.70;56.40;;;;;;5007301;28;20048;-74
2022/05/30 13:48:00;;;;;;;3.10;0.60;;;22.00;55.70;;;;;;5006922;28;20040;-74